sensor_id;sensor_type;location;lat;lon;timestamp;temperature;humidity
2459;DHT22;1241;50.920;6.936;2023-02-21T00:01:47;9.70;99.90
2459;DHT22;1241;50.920;6.936;2023-02-21T00:04:31;9.70;99.90
2459;DHT22;1241;50.920;6.936;2023-02-21T00:07:15;9.70;99.90
2459;DHT22;1241;50.920;6.936;2023-02-21T00:10:00;9.70;99.90
2459;DHT22;1241;50.920;6.936;2023-02-21T00:12:44;9.60;99.90
2459;DHT22;1241;50.920;6.936;2023-02-21T00:15:29;9.60;99.90
2459;DHT22;1241;50.920;6.936;2023-02-21T00:18:13;9.60;99.90
2459;DHT22;1241;50.920;6.936;2023-02-21T00:20:57;9.70;99.90
2459;DHT22;1241;50.920;6.936;2023-02-21T00:23:42;9.70;99.90
2459;DHT22;1241;50.920;6.936;2023-02-21T00:26:26;9.80;99.90
2459;DHT22;1241;50.920;6.936;2023-02-21T00:29:10;9.90;99.90
2459;DHT22;1241;50.920;6.936;2023-02-21T00:31:55;9.90;99.90
2459;DHT22;1241;50.920;6.936;2023-02-21T00:34:39;9.90;99.90
2459;DHT22;1241;50.920;6.936;2023-02-21T00:37:23;10.00;99.90
2459;DHT22;1241;50.920;6.936;2023-02-21T00:40:11;10.00;99.90
2459;DHT22;1241;50.920;6.936;2023-02-21T00:42:55;10.00;99.90
2459;DHT22;1241;50.920;6.936;2023-02-21T00:45:40;10.00;99.90
2459;DHT22;1241;50.920;6.936;2023-02-21T00:48:24;10.10;99.90
2459;DHT22;1241;50.920;6.936;2023-02-21T00:51:09;10.00;99.90
2459;DHT22;1241;50.920;6.936;2023-02-21T00:53:53;10.00;99.90
2459;DHT22;1241;50.920;6.936;2023-02-21T00:56:38;10.10;99.90
2459;DHT22;1241;50.920;6.936;2023-02-21T00:59:22;10.20;99.90
2459;DHT22;1241;50.920;6.936;2023-02-21T01:02:07;10.20;99.90
2459;DHT22;1241;50.920;6.936;2023-02-21T01:04:54;10.20;99.90
2459;DHT22;1241;50.920;6.936;2023-02-21T01:07:38;10.20;99.90
2459;DHT22;1241;50.920;6.936;2023-02-21T01:10:24;10.20;99.90
2459;DHT22;1241;50.920;6.936;2023-02-21T01:13:09;10.20;99.90
2459;DHT22;1241;50.920;6.936;2023-02-21T01:15:53;10.20;99.90
2459;DHT22;1241;50.920;6.936;2023-02-21T01:18:39;10.20;99.90
2459;DHT22;1241;50.920;6.936;2023-02-21T01:21:23;10.10;99.90
2459;DHT22;1241;50.920;6.936;2023-02-21T01:24:11;10.20;99.90
2459;DHT22;1241;50.920;6.936;2023-02-21T01:26:57;10.30;99.90
2459;DHT22;1241;50.920;6.936;2023-02-21T01:29:41;10.30;99.90
2459;DHT22;1241;50.920;6.936;2023-02-21T01:32:25;10.40;99.90
2459;DHT22;1241;50.920;6.936;2023-02-21T01:35:10;10.40;99.90
2459;DHT22;1241;50.920;6.936;2023-02-21T01:37:54;10.40;99.90
2459;DHT22;1241;50.920;6.936;2023-02-21T01:40:39;10.40;99.90
2459;DHT22;1241;50.920;6.936;2023-02-21T01:43:25;10.40;99.90
2459;DHT22;1241;50.920;6.936;2023-02-21T01:46:11;10.40;99.90
2459;DHT22;1241;50.920;6.936;2023-02-21T01:48:58;10.50;99.90
2459;DHT22;1241;50.920;6.936;2023-02-21T01:51:47;10.50;99.90
2459;DHT22;1241;50.920;6.936;2023-02-21T01:54:35;10.50;99.90
2459;DHT22;1241;50.920;6.936;2023-02-21T01:57:21;10.50;99.90
2459;DHT22;1241;50.920;6.936;2023-02-21T02:00:08;10.50;99.90
2459;DHT22;1241;50.920;6.936;2023-02-21T02:02:58;10.50;99.90
2459;DHT22;1241;50.920;6.936;2023-02-21T02:05:47;10.40;99.90
2459;DHT22;1241;50.920;6.936;2023-02-21T02:08:33;10.30;99.90
2459;DHT22;1241;50.920;6.936;2023-02-21T02:15:39;10.50;99.90
2459;DHT22;1241;50.920;6.936;2023-02-21T02:31:39;10.50;99.90
2459;DHT22;1241;50.920;6.936;2023-02-21T02:37:20;10.50;99.90
2459;DHT22;1241;50.920;6.936;2023-02-21T02:40:12;10.50;99.90
2459;DHT22;1241;50.920;6.936;2023-02-21T02:45:40;10.50;99.90
2459;DHT22;1241;50.920;6.936;2023-02-21T02:48:30;10.50;99.90
2459;DHT22;1241;50.920;6.936;2023-02-21T02:51:00;10.50;99.90
2459;DHT22;1241;50.920;6.936;2023-02-21T02:53:29;10.50;99.90
2459;DHT22;1241;50.920;6.936;2023-02-21T02:56:00;10.50;99.90
2459;DHT22;1241;50.920;6.936;2023-02-21T02:58:47;10.40;99.90
2459;DHT22;1241;50.920;6.936;2023-02-21T03:12:03;10.50;99.90
2459;DHT22;1241;50.920;6.936;2023-02-21T03:14:37;10.40;99.90
2459;DHT22;1241;50.920;6.936;2023-02-21T03:17:08;10.40;99.90
2459;DHT22;1241;50.920;6.936;2023-02-21T03:19:38;10.40;99.90
2459;DHT22;1241;50.920;6.936;2023-02-21T03:22:11;10.30;99.90
2459;DHT22;1241;50.920;6.936;2023-02-21T03:24:38;10.20;99.90
2459;DHT22;1241;50.920;6.936;2023-02-21T03:27:07;10.20;99.90
2459;DHT22;1241;50.920;6.936;2023-02-21T03:29:50;10.20;99.90
2459;DHT22;1241;50.920;6.936;2023-02-21T03:32:25;10.20;99.90
2459;DHT22;1241;50.920;6.936;2023-02-21T03:34:53;10.30;99.90
2459;DHT22;1241;50.920;6.936;2023-02-21T03:39:55;10.40;99.90
2459;DHT22;1241;50.920;6.936;2023-02-21T03:42:22;10.40;99.90
2459;DHT22;1241;50.920;6.936;2023-02-21T03:44:48;10.30;99.90
2459;DHT22;1241;50.920;6.936;2023-02-21T03:47:14;10.30;99.90
2459;DHT22;1241;50.920;6.936;2023-02-21T03:49:40;10.30;99.90
2459;DHT22;1241;50.920;6.936;2023-02-21T03:52:06;10.30;99.90
2459;DHT22;1241;50.920;6.936;2023-02-21T03:54:34;10.30;99.90
2459;DHT22;1241;50.920;6.936;2023-02-21T03:57:00;10.40;99.90
2459;DHT22;1241;50.920;6.936;2023-02-21T03:59:27;10.30;99.90
2459;DHT22;1241;50.920;6.936;2023-02-21T04:01:54;10.30;99.90
2459;DHT22;1241;50.920;6.936;2023-02-21T04:04:20;10.40;99.90
2459;DHT22;1241;50.920;6.936;2023-02-21T04:06:52;10.40;99.90
2459;DHT22;1241;50.920;6.936;2023-02-21T04:09:18;10.40;99.90
2459;DHT22;1241;50.920;6.936;2023-02-21T04:11:45;10.40;99.90
2459;DHT22;1241;50.920;6.936;2023-02-21T04:14:12;10.40;99.90
2459;DHT22;1241;50.920;6.936;2023-02-21T04:16:38;10.40;99.90
2459;DHT22;1241;50.920;6.936;2023-02-21T04:19:04;10.40;99.90
2459;DHT22;1241;50.920;6.936;2023-02-21T04:21:30;10.40;99.90
2459;DHT22;1241;50.920;6.936;2023-02-21T04:23:58;10.30;99.90
2459;DHT22;1241;50.920;6.936;2023-02-21T04:26:28;10.30;99.90
2459;DHT22;1241;50.920;6.936;2023-02-21T04:28:55;10.30;99.90
2459;DHT22;1241;50.920;6.936;2023-02-21T04:31:21;10.30;99.90
2459;DHT22;1241;50.920;6.936;2023-02-21T04:33:48;10.30;99.90
2459;DHT22;1241;50.920;6.936;2023-02-21T04:36:20;10.30;99.90
2459;DHT22;1241;50.920;6.936;2023-02-21T04:38:46;10.30;99.90
2459;DHT22;1241;50.920;6.936;2023-02-21T04:41:11;10.30;99.90
2459;DHT22;1241;50.920;6.936;2023-02-21T04:43:37;10.30;99.90
2459;DHT22;1241;50.920;6.936;2023-02-21T04:46:05;10.20;99.90
2459;DHT22;1241;50.920;6.936;2023-02-21T04:48:31;10.30;99.90
2459;DHT22;1241;50.920;6.936;2023-02-21T04:50:57;10.40;99.90
2459;DHT22;1241;50.920;6.936;2023-02-21T04:53:22;10.30;99.90
2459;DHT22;1241;50.920;6.936;2023-02-21T04:55:48;10.30;99.90
2459;DHT22;1241;50.920;6.936;2023-02-21T04:58:14;10.40;99.90
2459;DHT22;1241;50.920;6.936;2023-02-21T05:00:39;10.40;99.90
2459;DHT22;1241;50.920;6.936;2023-02-21T05:03:05;10.50;99.90
2459;DHT22;1241;50.920;6.936;2023-02-21T05:05:31;10.50;99.90
2459;DHT22;1241;50.920;6.936;2023-02-21T05:07:56;10.40;99.90
2459;DHT22;1241;50.920;6.936;2023-02-21T05:10:22;10.40;99.90
2459;DHT22;1241;50.920;6.936;2023-02-21T05:12:48;10.40;99.90
2459;DHT22;1241;50.920;6.936;2023-02-21T05:15:14;10.40;99.90
2459;DHT22;1241;50.920;6.936;2023-02-21T05:17:40;10.40;99.90
2459;DHT22;1241;50.920;6.936;2023-02-21T05:20:06;10.40;99.90
2459;DHT22;1241;50.920;6.936;2023-02-21T05:22:40;10.40;99.90
2459;DHT22;1241;50.920;6.936;2023-02-21T05:25:20;10.30;99.90
2459;DHT22;1241;50.920;6.936;2023-02-21T05:27:46;10.30;99.90
2459;DHT22;1241;50.920;6.936;2023-02-21T05:30:15;10.30;99.90
2459;DHT22;1241;50.920;6.936;2023-02-21T05:32:41;10.30;99.90
2459;DHT22;1241;50.920;6.936;2023-02-21T05:35:08;10.20;99.90
2459;DHT22;1241;50.920;6.936;2023-02-21T05:37:34;10.30;99.90
2459;DHT22;1241;50.920;6.936;2023-02-21T05:40:00;10.20;99.90
2459;DHT22;1241;50.920;6.936;2023-02-21T05:42:26;10.20;99.90
2459;DHT22;1241;50.920;6.936;2023-02-21T05:44:51;10.20;99.90
2459;DHT22;1241;50.920;6.936;2023-02-21T05:47:17;10.10;99.90
2459;DHT22;1241;50.920;6.936;2023-02-21T05:49:43;10.10;99.90
2459;DHT22;1241;50.920;6.936;2023-02-21T05:52:13;10.10;99.90
2459;DHT22;1241;50.920;6.936;2023-02-21T05:54:40;10.10;99.90
2459;DHT22;1241;50.920;6.936;2023-02-21T05:57:05;10.10;99.90
2459;DHT22;1241;50.920;6.936;2023-02-21T05:59:31;10.00;99.90
2459;DHT22;1241;50.920;6.936;2023-02-21T06:01:57;10.10;99.90
2459;DHT22;1241;50.920;6.936;2023-02-21T06:04:23;10.10;99.90
2459;DHT22;1241;50.920;6.936;2023-02-21T06:06:49;10.10;99.90
2459;DHT22;1241;50.920;6.936;2023-02-21T06:09:16;10.20;99.90
2459;DHT22;1241;50.920;6.936;2023-02-21T06:11:43;10.20;99.90
2459;DHT22;1241;50.920;6.936;2023-02-21T06:14:19;10.10;99.90
2459;DHT22;1241;50.920;6.936;2023-02-21T06:16:45;10.00;99.90
2459;DHT22;1241;50.920;6.936;2023-02-21T06:19:12;10.00;99.90
2459;DHT22;1241;50.920;6.936;2023-02-21T06:21:39;9.90;99.90
2459;DHT22;1241;50.920;6.936;2023-02-21T06:24:07;9.90;99.90
2459;DHT22;1241;50.920;6.936;2023-02-21T06:26:32;9.90;99.90
2459;DHT22;1241;50.920;6.936;2023-02-21T06:28:58;9.80;99.90
2459;DHT22;1241;50.920;6.936;2023-02-21T06:31:24;9.80;99.90
2459;DHT22;1241;50.920;6.936;2023-02-21T06:33:49;9.80;99.90
2459;DHT22;1241;50.920;6.936;2023-02-21T06:36:21;9.80;99.90
2459;DHT22;1241;50.920;6.936;2023-02-21T06:38:48;9.80;99.90
2459;DHT22;1241;50.920;6.936;2023-02-21T06:41:20;9.80;99.90
2459;DHT22;1241;50.920;6.936;2023-02-21T06:43:50;9.80;99.90
2459;DHT22;1241;50.920;6.936;2023-02-21T06:46:17;9.80;99.90
2459;DHT22;1241;50.920;6.936;2023-02-21T06:48:42;9.80;99.90
2459;DHT22;1241;50.920;6.936;2023-02-21T06:51:08;9.80;99.90
2459;DHT22;1241;50.920;6.936;2023-02-21T06:53:42;9.80;99.90
2459;DHT22;1241;50.920;6.936;2023-02-21T06:56:09;9.80;99.90
2459;DHT22;1241;50.920;6.936;2023-02-21T06:58:35;9.90;99.90
2459;DHT22;1241;50.920;6.936;2023-02-21T07:01:00;9.90;99.90
2459;DHT22;1241;50.920;6.936;2023-02-21T07:03:27;9.80;99.90
2459;DHT22;1241;50.920;6.936;2023-02-21T07:05:53;9.90;99.90
2459;DHT22;1241;50.920;6.936;2023-02-21T07:08:19;9.90;99.90
2459;DHT22;1241;50.920;6.936;2023-02-21T07:10:44;9.90;99.90
2459;DHT22;1241;50.920;6.936;2023-02-21T07:13:10;9.90;99.90
2459;DHT22;1241;50.920;6.936;2023-02-21T07:15:36;9.90;99.90
2459;DHT22;1241;50.920;6.936;2023-02-21T07:18:01;10.00;99.90
2459;DHT22;1241;50.920;6.936;2023-02-21T07:20:27;10.00;99.90
2459;DHT22;1241;50.920;6.936;2023-02-21T07:22:52;10.10;99.90
2459;DHT22;1241;50.920;6.936;2023-02-21T07:25:20;10.10;99.90
2459;DHT22;1241;50.920;6.936;2023-02-21T07:27:47;10.10;99.90
2459;DHT22;1241;50.920;6.936;2023-02-21T07:30:14;10.20;99.90
2459;DHT22;1241;50.920;6.936;2023-02-21T07:32:39;10.20;99.90
2459;DHT22;1241;50.920;6.936;2023-02-21T07:35:05;10.20;99.90
2459;DHT22;1241;50.920;6.936;2023-02-21T07:37:31;10.20;99.90
2459;DHT22;1241;50.920;6.936;2023-02-21T07:39:57;10.20;99.90
2459;DHT22;1241;50.920;6.936;2023-02-21T07:42:23;10.30;99.90
2459;DHT22;1241;50.920;6.936;2023-02-21T07:44:54;10.20;99.90
2459;DHT22;1241;50.920;6.936;2023-02-21T07:47:22;10.30;99.90
2459;DHT22;1241;50.920;6.936;2023-02-21T07:49:47;10.30;99.90
2459;DHT22;1241;50.920;6.936;2023-02-21T07:52:13;10.30;99.90
2459;DHT22;1241;50.920;6.936;2023-02-21T07:54:39;10.20;99.90
2459;DHT22;1241;50.920;6.936;2023-02-21T07:57:06;10.20;99.90
2459;DHT22;1241;50.920;6.936;2023-02-21T07:59:32;10.20;99.90
2459;DHT22;1241;50.920;6.936;2023-02-21T08:01:58;10.30;99.90
2459;DHT22;1241;50.920;6.936;2023-02-21T08:04:24;10.30;99.90
2459;DHT22;1241;50.920;6.936;2023-02-21T08:06:50;10.30;99.90
2459;DHT22;1241;50.920;6.936;2023-02-21T08:09:16;10.30;99.90
2459;DHT22;1241;50.920;6.936;2023-02-21T08:11:42;10.40;99.90
2459;DHT22;1241;50.920;6.936;2023-02-21T08:14:07;10.40;99.90
2459;DHT22;1241;50.920;6.936;2023-02-21T08:16:33;10.40;99.90
2459;DHT22;1241;50.920;6.936;2023-02-21T08:18:59;10.50;99.90
2459;DHT22;1241;50.920;6.936;2023-02-21T08:21:24;10.60;99.90
2459;DHT22;1241;50.920;6.936;2023-02-21T08:23:53;10.70;99.90
2459;DHT22;1241;50.920;6.936;2023-02-21T08:26:20;10.70;99.90
2459;DHT22;1241;50.920;6.936;2023-02-21T08:28:46;10.70;99.90
2459;DHT22;1241;50.920;6.936;2023-02-21T08:31:11;10.60;99.90
2459;DHT22;1241;50.920;6.936;2023-02-21T08:33:37;10.60;99.90
2459;DHT22;1241;50.920;6.936;2023-02-21T08:36:04;10.60;99.90
2459;DHT22;1241;50.920;6.936;2023-02-21T08:38:29;10.60;99.90
2459;DHT22;1241;50.920;6.936;2023-02-21T08:40:55;10.70;99.90
2459;DHT22;1241;50.920;6.936;2023-02-21T08:43:23;10.70;99.90
2459;DHT22;1241;50.920;6.936;2023-02-21T08:45:48;10.80;99.90
2459;DHT22;1241;50.920;6.936;2023-02-21T08:48:14;10.80;99.90
2459;DHT22;1241;50.920;6.936;2023-02-21T08:50:40;10.80;99.90
2459;DHT22;1241;50.920;6.936;2023-02-21T08:53:06;10.70;99.90
2459;DHT22;1241;50.920;6.936;2023-02-21T08:55:31;10.70;99.90
2459;DHT22;1241;50.920;6.936;2023-02-21T08:57:57;10.70;99.90
2459;DHT22;1241;50.920;6.936;2023-02-21T09:00:24;10.70;99.90
2459;DHT22;1241;50.920;6.936;2023-02-21T09:02:53;10.70;99.90
2459;DHT22;1241;50.920;6.936;2023-02-21T09:05:22;10.70;99.90
2459;DHT22;1241;50.920;6.936;2023-02-21T09:07:50;10.60;99.90
2459;DHT22;1241;50.920;6.936;2023-02-21T09:10:20;10.60;99.90
2459;DHT22;1241;50.920;6.936;2023-02-21T09:12:46;10.70;99.90
2459;DHT22;1241;50.920;6.936;2023-02-21T09:15:15;10.70;99.90
2459;DHT22;1241;50.920;6.936;2023-02-21T09:17:42;10.80;99.90
2459;DHT22;1241;50.920;6.936;2023-02-21T09:20:09;10.80;99.90
2459;DHT22;1241;50.920;6.936;2023-02-21T09:22:35;10.90;99.90
2459;DHT22;1241;50.920;6.936;2023-02-21T09:25:01;10.90;99.90
2459;DHT22;1241;50.920;6.936;2023-02-21T09:27:27;10.90;99.90
2459;DHT22;1241;50.920;6.936;2023-02-21T09:32:29;10.80;99.90
2459;DHT22;1241;50.920;6.936;2023-02-21T09:34:55;11.00;99.90
2459;DHT22;1241;50.920;6.936;2023-02-21T09:37:20;11.10;99.90
2459;DHT22;1241;50.920;6.936;2023-02-21T09:39:46;11.10;99.90
2459;DHT22;1241;50.920;6.936;2023-02-21T09:42:16;11.00;99.90
2459;DHT22;1241;50.920;6.936;2023-02-21T09:44:43;11.10;99.90
2459;DHT22;1241;50.920;6.936;2023-02-21T09:47:14;11.10;99.90
2459;DHT22;1241;50.920;6.936;2023-02-21T09:49:43;11.20;99.90
2459;DHT22;1241;50.920;6.936;2023-02-21T09:57:46;11.30;99.90
2459;DHT22;1241;50.920;6.936;2023-02-21T10:00:22;11.30;99.90
2459;DHT22;1241;50.920;6.936;2023-02-21T10:16:41;11.70;99.90
2459;DHT22;1241;50.920;6.936;2023-02-21T10:19:35;11.70;99.90
2459;DHT22;1241;50.920;6.936;2023-02-21T10:22:13;11.70;99.90
2459;DHT22;1241;50.920;6.936;2023-02-21T10:24:41;11.80;99.90
2459;DHT22;1241;50.920;6.936;2023-02-21T10:27:14;11.70;99.90
2459;DHT22;1241;50.920;6.936;2023-02-21T10:32:23;11.80;99.90
2459;DHT22;1241;50.920;6.936;2023-02-21T10:34:50;11.60;99.90
2459;DHT22;1241;50.920;6.936;2023-02-21T10:37:40;11.50;99.90
2459;DHT22;1241;50.920;6.936;2023-02-21T10:42:54;11.60;99.90
2459;DHT22;1241;50.920;6.936;2023-02-21T10:45:29;11.70;99.90
2459;DHT22;1241;50.920;6.936;2023-02-21T10:48:06;12.00;99.90
2459;DHT22;1241;50.920;6.936;2023-02-21T10:51:12;12.10;99.90
2459;DHT22;1241;50.920;6.936;2023-02-21T10:53:40;12.20;99.90
2459;DHT22;1241;50.920;6.936;2023-02-21T10:58:44;12.10;99.90
2459;DHT22;1241;50.920;6.936;2023-02-21T11:04:06;12.10;99.90
2459;DHT22;1241;50.920;6.936;2023-02-21T11:06:37;11.90;99.90
2459;DHT22;1241;50.920;6.936;2023-02-21T11:14:41;11.40;99.90
2459;DHT22;1241;50.920;6.936;2023-02-21T11:17:14;11.70;99.90
2459;DHT22;1241;50.920;6.936;2023-02-21T11:25:02;12.30;99.90
2459;DHT22;1241;50.920;6.936;2023-02-21T11:27:32;12.30;99.90
2459;DHT22;1241;50.920;6.936;2023-02-21T11:30:01;12.30;99.90
2459;DHT22;1241;50.920;6.936;2023-02-21T11:32:34;12.10;99.90
2459;DHT22;1241;50.920;6.936;2023-02-21T11:37:47;12.50;99.90
2459;DHT22;1241;50.920;6.936;2023-02-21T11:43:31;12.30;99.90
2459;DHT22;1241;50.920;6.936;2023-02-21T11:49:05;12.60;99.90
2459;DHT22;1241;50.920;6.936;2023-02-21T11:51:45;12.40;99.90
2459;DHT22;1241;50.920;6.936;2023-02-21T11:54:13;12.70;99.90
2459;DHT22;1241;50.920;6.936;2023-02-21T11:59:50;13.20;99.90
2459;DHT22;1241;50.920;6.936;2023-02-21T12:11:19;14.10;99.90
2459;DHT22;1241;50.920;6.936;2023-02-21T12:16:49;14.50;99.90
2459;DHT22;1241;50.920;6.936;2023-02-21T12:19:42;14.50;99.90
2459;DHT22;1241;50.920;6.936;2023-02-21T12:31:05;14.70;99.90
2459;DHT22;1241;50.920;6.936;2023-02-21T12:33:55;14.80;99.90
2459;DHT22;1241;50.920;6.936;2023-02-21T12:36:54;14.60;99.90
2459;DHT22;1241;50.920;6.936;2023-02-21T12:42:39;13.90;99.90
2459;DHT22;1241;50.920;6.936;2023-02-21T12:47:58;13.60;99.90
2459;DHT22;1241;50.920;6.936;2023-02-21T12:50:35;13.80;99.90
2459;DHT22;1241;50.920;6.936;2023-02-21T12:53:11;13.60;99.90
2459;DHT22;1241;50.920;6.936;2023-02-21T12:55:51;13.40;99.90
2459;DHT22;1241;50.920;6.936;2023-02-21T12:58:32;13.30;99.90
2459;DHT22;1241;50.920;6.936;2023-02-21T13:01:20;13.40;99.90
2459;DHT22;1241;50.920;6.936;2023-02-21T13:11:56;13.90;99.90
2459;DHT22;1241;50.920;6.936;2023-02-21T13:14:34;13.70;99.90
2459;DHT22;1241;50.920;6.936;2023-02-21T13:17:01;13.50;99.90
2459;DHT22;1241;50.920;6.936;2023-02-21T13:19:38;13.20;99.90
2459;DHT22;1241;50.920;6.936;2023-02-21T13:28:37;13.30;99.90
2459;DHT22;1241;50.920;6.936;2023-02-21T13:31:05;13.30;99.90
2459;DHT22;1241;50.920;6.936;2023-02-21T13:33:40;13.10;99.90
2459;DHT22;1241;50.920;6.936;2023-02-21T13:36:22;12.90;99.90
2459;DHT22;1241;50.920;6.936;2023-02-21T13:41:49;12.30;99.90
2459;DHT22;1241;50.920;6.936;2023-02-21T13:44:35;12.30;99.90
2459;DHT22;1241;50.920;6.936;2023-02-21T13:47:21;12.20;99.90
2459;DHT22;1241;50.920;6.936;2023-02-21T13:57:37;12.20;99.90
2459;DHT22;1241;50.920;6.936;2023-02-21T14:08:44;12.60;99.90
2459;DHT22;1241;50.920;6.936;2023-02-21T14:11:21;12.80;99.90
2459;DHT22;1241;50.920;6.936;2023-02-21T14:16:29;13.00;99.90
2459;DHT22;1241;50.920;6.936;2023-02-21T14:19:07;13.10;99.90
2459;DHT22;1241;50.920;6.936;2023-02-21T14:21:44;13.00;99.90
2459;DHT22;1241;50.920;6.936;2023-02-21T14:31:53;12.50;99.90
2459;DHT22;1241;50.920;6.936;2023-02-21T14:54:55;11.90;99.90
2459;DHT22;1241;50.920;6.936;2023-02-21T15:00:19;11.90;99.90
2459;DHT22;1241;50.920;6.936;2023-02-21T15:03:04;11.90;99.90
2459;DHT22;1241;50.920;6.936;2023-02-21T15:08:17;12.00;99.90
2459;DHT22;1241;50.920;6.936;2023-02-21T15:10:45;11.90;99.90
2459;DHT22;1241;50.920;6.936;2023-02-21T15:13:31;11.90;99.90
2459;DHT22;1241;50.920;6.936;2023-02-21T15:16:09;12.00;99.90
2459;DHT22;1241;50.920;6.936;2023-02-21T15:18:57;11.90;99.90
2459;DHT22;1241;50.920;6.936;2023-02-21T15:21:24;11.70;99.90
2459;DHT22;1241;50.920;6.936;2023-02-21T15:24:21;11.70;99.90
2459;DHT22;1241;50.920;6.936;2023-02-21T15:26:47;11.50;99.90
2459;DHT22;1241;50.920;6.936;2023-02-21T15:29:14;11.40;99.90
2459;DHT22;1241;50.920;6.936;2023-02-21T15:31:59;11.30;99.90
2459;DHT22;1241;50.920;6.936;2023-02-21T15:34:31;11.20;99.90
2459;DHT22;1241;50.920;6.936;2023-02-21T15:37:14;11.30;99.90
2459;DHT22;1241;50.920;6.936;2023-02-21T15:39:42;11.20;99.90
2459;DHT22;1241;50.920;6.936;2023-02-21T15:42:12;11.20;99.90
2459;DHT22;1241;50.920;6.936;2023-02-21T15:44:44;11.20;99.90
2459;DHT22;1241;50.920;6.936;2023-02-21T15:47:20;11.10;99.90
2459;DHT22;1241;50.920;6.936;2023-02-21T15:50:17;11.10;99.90
2459;DHT22;1241;50.920;6.936;2023-02-21T15:52:49;10.90;99.90
2459;DHT22;1241;50.920;6.936;2023-02-21T16:02:51;10.60;99.90
2459;DHT22;1241;50.920;6.936;2023-02-21T16:05:26;10.60;99.90
2459;DHT22;1241;50.920;6.936;2023-02-21T16:07:53;10.60;99.90
2459;DHT22;1241;50.920;6.936;2023-02-21T16:10:24;10.60;99.90
2459;DHT22;1241;50.920;6.936;2023-02-21T16:12:56;10.60;99.90
2459;DHT22;1241;50.920;6.936;2023-02-21T16:15:28;10.50;99.90
2459;DHT22;1241;50.920;6.936;2023-02-21T16:17:59;10.40;99.90
2459;DHT22;1241;50.920;6.936;2023-02-21T16:20:33;10.40;99.90
2459;DHT22;1241;50.920;6.936;2023-02-21T16:28:32;10.00;99.90
2459;DHT22;1241;50.920;6.936;2023-02-21T16:31:00;9.80;99.90
2459;DHT22;1241;50.920;6.936;2023-02-21T16:33:27;9.80;99.90
2459;DHT22;1241;50.920;6.936;2023-02-21T16:35:53;9.70;99.90
2459;DHT22;1241;50.920;6.936;2023-02-21T16:38:21;9.70;99.90
2459;DHT22;1241;50.920;6.936;2023-02-21T16:40:47;9.60;99.90
2459;DHT22;1241;50.920;6.936;2023-02-21T16:43:24;9.50;99.90
2459;DHT22;1241;50.920;6.936;2023-02-21T16:45:53;9.40;99.90
2459;DHT22;1241;50.920;6.936;2023-02-21T16:48:25;9.30;99.90
2459;DHT22;1241;50.920;6.936;2023-02-21T16:50:54;9.30;99.90
2459;DHT22;1241;50.920;6.936;2023-02-21T16:53:21;9.20;99.90
2459;DHT22;1241;50.920;6.936;2023-02-21T16:55:47;9.10;99.90
2459;DHT22;1241;50.920;6.936;2023-02-21T17:00:46;8.90;99.90
2459;DHT22;1241;50.920;6.936;2023-02-21T17:03:12;8.80;99.90
2459;DHT22;1241;50.920;6.936;2023-02-21T17:05:37;8.80;99.90
2459;DHT22;1241;50.920;6.936;2023-02-21T17:08:03;8.80;99.90
2459;DHT22;1241;50.920;6.936;2023-02-21T17:10:29;8.70;99.90
2459;DHT22;1241;50.920;6.936;2023-02-21T17:12:57;8.70;99.90
2459;DHT22;1241;50.920;6.936;2023-02-21T17:15:22;8.60;99.90
2459;DHT22;1241;50.920;6.936;2023-02-21T17:17:49;8.50;99.90
2459;DHT22;1241;50.920;6.936;2023-02-21T17:20:20;8.40;99.90
2459;DHT22;1241;50.920;6.936;2023-02-21T17:22:46;8.40;99.90
2459;DHT22;1241;50.920;6.936;2023-02-21T17:25:13;8.30;99.90
2459;DHT22;1241;50.920;6.936;2023-02-21T17:27:39;8.30;99.90
2459;DHT22;1241;50.920;6.936;2023-02-21T17:30:05;8.20;99.90
2459;DHT22;1241;50.920;6.936;2023-02-21T17:32:31;8.20;99.90
2459;DHT22;1241;50.920;6.936;2023-02-21T17:34:57;8.20;99.90
2459;DHT22;1241;50.920;6.936;2023-02-21T17:37:22;8.20;99.90
2459;DHT22;1241;50.920;6.936;2023-02-21T17:39:52;8.20;99.90
2459;DHT22;1241;50.920;6.936;2023-02-21T17:42:18;8.10;99.90
2459;DHT22;1241;50.920;6.936;2023-02-21T17:44:44;8.10;99.90
2459;DHT22;1241;50.920;6.936;2023-02-21T17:47:12;8.10;99.90
2459;DHT22;1241;50.920;6.936;2023-02-21T17:49:38;8.00;99.90
2459;DHT22;1241;50.920;6.936;2023-02-21T17:52:04;8.10;99.90
2459;DHT22;1241;50.920;6.936;2023-02-21T17:54:30;8.00;99.90
2459;DHT22;1241;50.920;6.936;2023-02-21T17:56:56;8.00;99.90
2459;DHT22;1241;50.920;6.936;2023-02-21T17:59:21;7.90;99.90
2459;DHT22;1241;50.920;6.936;2023-02-21T18:01:47;7.90;99.90
2459;DHT22;1241;50.920;6.936;2023-02-21T18:04:13;7.90;99.90
2459;DHT22;1241;50.920;6.936;2023-02-21T18:06:40;7.90;99.90
2459;DHT22;1241;50.920;6.936;2023-02-21T18:09:06;7.90;99.90
2459;DHT22;1241;50.920;6.936;2023-02-21T18:11:33;7.90;99.90
2459;DHT22;1241;50.920;6.936;2023-02-21T18:14:02;7.90;99.90
2459;DHT22;1241;50.920;6.936;2023-02-21T18:16:28;7.90;99.90
2459;DHT22;1241;50.920;6.936;2023-02-21T18:18:54;7.90;99.90
2459;DHT22;1241;50.920;6.936;2023-02-21T18:21:20;7.80;99.90
2459;DHT22;1241;50.920;6.936;2023-02-21T18:23:47;7.80;99.90
2459;DHT22;1241;50.920;6.936;2023-02-21T18:26:14;7.80;99.90
2459;DHT22;1241;50.920;6.936;2023-02-21T18:28:40;7.80;99.90
2459;DHT22;1241;50.920;6.936;2023-02-21T18:31:06;7.80;99.90
2459;DHT22;1241;50.920;6.936;2023-02-21T18:33:31;7.80;99.90
2459;DHT22;1241;50.920;6.936;2023-02-21T18:35:58;7.80;99.90
2459;DHT22;1241;50.920;6.936;2023-02-21T18:38:25;7.80;99.90
2459;DHT22;1241;50.920;6.936;2023-02-21T18:40:51;7.70;99.90
2459;DHT22;1241;50.920;6.936;2023-02-21T18:43:24;7.70;99.90
2459;DHT22;1241;50.920;6.936;2023-02-21T18:45:52;7.70;99.90
2459;DHT22;1241;50.920;6.936;2023-02-21T18:48:19;7.70;99.90
2459;DHT22;1241;50.920;6.936;2023-02-21T18:50:45;7.60;99.90
2459;DHT22;1241;50.920;6.936;2023-02-21T18:53:12;7.60;99.90
2459;DHT22;1241;50.920;6.936;2023-02-21T18:55:37;7.70;99.90
2459;DHT22;1241;50.920;6.936;2023-02-21T18:58:04;7.70;99.90
2459;DHT22;1241;50.920;6.936;2023-02-21T19:00:31;7.70;99.90
2459;DHT22;1241;50.920;6.936;2023-02-21T19:02:59;7.60;99.90
2459;DHT22;1241;50.920;6.936;2023-02-21T19:05:26;7.60;99.90
2459;DHT22;1241;50.920;6.936;2023-02-21T19:07:52;7.70;99.90
2459;DHT22;1241;50.920;6.936;2023-02-21T19:10:20;7.70;99.90
2459;DHT22;1241;50.920;6.936;2023-02-21T19:12:47;7.60;99.90
2459;DHT22;1241;50.920;6.936;2023-02-21T19:15:14;7.70;99.90
2459;DHT22;1241;50.920;6.936;2023-02-21T19:17:39;7.70;99.90
2459;DHT22;1241;50.920;6.936;2023-02-21T19:20:06;7.60;99.90
2459;DHT22;1241;50.920;6.936;2023-02-21T19:22:34;7.60;99.90
2459;DHT22;1241;50.920;6.936;2023-02-21T19:24:59;7.70;99.90
2459;DHT22;1241;50.920;6.936;2023-02-21T19:27:25;7.60;99.90
2459;DHT22;1241;50.920;6.936;2023-02-21T19:29:51;7.50;99.90
2459;DHT22;1241;50.920;6.936;2023-02-21T19:32:17;7.50;99.90
2459;DHT22;1241;50.920;6.936;2023-02-21T19:34:46;7.60;99.90
2459;DHT22;1241;50.920;6.936;2023-02-21T19:37:12;7.50;99.90
2459;DHT22;1241;50.920;6.936;2023-02-21T19:39:38;7.60;99.90
2459;DHT22;1241;50.920;6.936;2023-02-21T19:42:04;7.50;99.90
2459;DHT22;1241;50.920;6.936;2023-02-21T19:44:30;7.60;99.90
2459;DHT22;1241;50.920;6.936;2023-02-21T19:46:56;7.50;99.90
2459;DHT22;1241;50.920;6.936;2023-02-21T19:49:22;7.50;99.90
2459;DHT22;1241;50.920;6.936;2023-02-21T19:51:50;7.40;99.90
2459;DHT22;1241;50.920;6.936;2023-02-21T19:54:18;7.40;99.90
2459;DHT22;1241;50.920;6.936;2023-02-21T19:56:44;7.40;99.90
2459;DHT22;1241;50.920;6.936;2023-02-21T19:59:09;7.40;99.90